Time;durP1;ratioP1;P1;durP2;ratioP2;P2;SDS_P1;SDS_P2;PMS_P1;PMS_P2;Temp;Humidity;BMP_temperature;BMP_pressure;BME280_temperature;BME280_humidity;BME280_pressure;Samples;Min_cycle;Max_cycle;Signal;HPM_P1;HPM_P2
2021/08/22 00:00:05;;;;;;;5.80;3.90;;;11.40;99.90;;;;;;4991230;28;20034;-64
2021/08/22 00:02:30;;;;;;;7.68;4.68;;;11.20;99.90;;;;;;4993138;28;20030;-64
2021/08/22 00:04:57;;;;;;;8.63;4.20;;;11.20;99.90;;;;;;4993464;28;20215;-64
2021/08/22 00:07:24;;;;;;;6.05;4.13;;;11.20;99.90;;;;;;4992224;28;20128;-64
2021/08/22 00:09:50;;;;;;;9.15;4.32;;;11.20;99.90;;;;;;4992932;28;20034;-64
2021/08/22 00:12:16;;;;;;;7.55;4.35;;;11.20;99.90;;;;;;4992259;28;20117;-64
2021/08/22 00:14:42;;;;;;;5.63;3.95;;;11.20;99.90;;;;;;4991883;28;20050;-64
2021/08/22 00:17:07;;;;;;;7.15;4.28;;;11.20;99.90;;;;;;4994018;28;20034;-64
2021/08/22 00:19:34;;;;;;;7.85;4.47;;;11.30;99.90;;;;;;4992422;28;20038;-65
2021/08/22 00:22:00;;;;;;;7.50;4.18;;;11.20;99.90;;;;;;4993053;28;20033;-64
2021/08/22 00:24:26;;;;;;;9.02;4.47;;;11.30;99.90;;;;;;4991240;28;20291;-65
2021/08/22 00:26:51;;;;;;;8.05;4.00;;;11.30;99.90;;;;;;4993272;28;20032;-64
2021/08/22 00:29:17;;;;;;;9.45;3.70;;;11.30;99.90;;;;;;4993028;28;20096;-64
2021/08/22 00:31:43;;;;;;;10.18;4.30;;;11.30;99.90;;;;;;4992686;28;20037;-64
2021/08/22 00:34:09;;;;;;;5.13;3.45;;;11.20;99.90;;;;;;4992296;28;20065;-64
2021/08/22 00:36:35;;;;;;;7.45;3.47;;;11.20;99.90;;;;;;4989234;28;20356;-64
2021/08/22 00:39:01;;;;;;;6.28;3.80;;;11.10;99.90;;;;;;4990256;28;20038;-64
2021/08/22 00:41:28;;;;;;;6.25;3.58;;;11.10;99.90;;;;;;4990971;28;20122;-64
2021/08/22 00:43:54;;;;;;;6.28;3.38;;;11.20;99.90;;;;;;4990646;28;20037;-64
2021/08/22 00:46:20;;;;;;;10.45;3.80;;;11.20;99.90;;;;;;4989406;28;20093;-64
2021/08/22 00:48:46;;;;;;;6.00;3.60;;;11.20;99.90;;;;;;4992179;28;20033;-64
2021/08/22 00:51:18;;;;;;;8.30;4.03;;;11.20;99.90;;;;;;4991760;28;20022;-64
2021/08/22 00:53:46;;;;;;;6.32;3.35;;;11.10;99.90;;;;;;4991116;28;20252;-63
2021/08/22 00:56:13;;;;;;;8.15;3.38;;;11.00;99.90;;;;;;4991983;28;20029;-63
2021/08/22 00:58:39;;;;;;;5.35;3.65;;;11.00;99.90;;;;;;4989618;28;20030;-64
2021/08/22 01:01:30;;;;;;;5.25;3.70;;;11.00;99.90;;;;;;4987357;28;22232;-64
2021/08/22 01:04:16;;;;;;;5.55;3.67;;;11.00;99.90;;;;;;4990393;28;20218;-64
2021/08/22 01:07:23;;;;;;;7.03;3.47;;;11.00;99.90;;;;;;4992314;28;20052;-64
2021/08/22 01:09:51;;;;;;;8.30;3.83;;;11.00;99.90;;;;;;4983978;28;20054;-64
2021/08/22 01:12:28;;;;;;;5.20;3.70;;;10.90;99.90;;;;;;4989715;28;20041;-63
2021/08/22 01:14:59;;;;;;;4.65;3.30;;;10.80;99.90;;;;;;4990171;28;20152;-64
2021/08/22 01:17:29;;;;;;;6.28;3.65;;;10.80;99.90;;;;;;4989383;28;20023;-63
2021/08/22 01:20:08;;;;;;;5.32;3.25;;;10.80;99.90;;;;;;4988574;28;20033;-63
2021/08/22 01:22:36;;;;;;;5.47;3.22;;;10.80;99.90;;;;;;4991103;28;20041;-64
2021/08/22 01:25:03;;;;;;;5.15;3.78;;;10.70;99.90;;;;;;4990554;28;20263;-63
2021/08/22 01:27:31;;;;;;;5.00;3.65;;;10.70;99.90;;;;;;4972637;28;20262;-64
2021/08/22 01:30:10;;;;;;;4.35;3.30;;;10.80;99.90;;;;;;4988275;28;20034;-64
2021/08/22 01:32:41;;;;;;;6.57;4.50;;;10.90;99.90;;;;;;4989432;28;20048;-64
2021/08/22 01:35:09;;;;;;;4.18;3.15;;;10.90;99.90;;;;;;4990156;28;20436;-64
2021/08/22 01:37:37;;;;;;;4.90;3.63;;;10.90;99.90;;;;;;4989691;28;20034;-64
2021/08/22 01:40:06;;;;;;;6.28;4.05;;;11.00;99.90;;;;;;4989988;28;20061;-64
2021/08/22 01:42:33;;;;;;;6.25;3.50;;;11.10;99.90;;;;;;4990252;28;20030;-65
2021/08/22 01:45:01;;;;;;;5.88;3.97;;;11.10;99.90;;;;;;4990546;28;20033;-65
2021/08/22 01:47:27;;;;;;;6.55;3.78;;;11.10;99.90;;;;;;4986472;28;20110;-64
2021/08/22 01:49:54;;;;;;;5.35;3.60;;;11.10;99.90;;;;;;4989711;28;20034;-65
2021/08/22 01:52:20;;;;;;;6.10;4.20;;;11.10;99.90;;;;;;4990394;28;20351;-64
2021/08/22 01:54:46;;;;;;;7.00;4.07;;;11.10;99.90;;;;;;4987730;28;20042;-64
2021/08/22 01:57:12;;;;;;;4.68;3.78;;;11.00;99.90;;;;;;4991827;28;20072;-64
2021/08/22 01:59:39;;;;;;;7.18;3.88;;;11.00;99.90;;;;;;4988583;28;20534;-64
2021/08/22 02:02:05;;;;;;;5.55;4.18;;;11.00;99.90;;;;;;4988081;28;20149;-65
2021/08/22 02:04:53;;;;;;;7.53;4.35;;;11.10;99.90;;;;;;4991231;28;20022;-64
2021/08/22 02:07:25;;;;;;;5.22;3.40;;;11.10;99.90;;;;;;4988951;28;20028;-64
2021/08/22 02:09:59;;;;;;;6.35;4.63;;;11.20;99.90;;;;;;4989976;28;20040;-64
2021/08/22 02:12:25;;;;;;;6.30;4.10;;;11.20;99.90;;;;;;4990382;28;20038;-64
2021/08/22 02:15:00;;;;;;;6.47;4.10;;;11.10;99.90;;;;;;4986768;28;20405;-63
2021/08/22 02:17:35;;;;;;;6.18;4.55;;;11.20;99.90;;;;;;4989545;28;21282;-64
2021/08/22 02:20:06;;;;;;;9.45;4.35;;;11.30;99.90;;;;;;4988676;28;20053;-65
2021/08/22 02:22:34;;;;;;;6.22;4.43;;;11.30;99.90;;;;;;4980652;28;20030;-64
2021/08/22 02:25:01;;;;;;;6.75;4.22;;;11.20;99.90;;;;;;4989998;28;20023;-64
2021/08/22 02:27:29;;;;;;;7.10;3.90;;;11.20;99.90;;;;;;4989378;28;20034;-64
2021/08/22 02:29:55;;;;;;;12.43;4.90;;;11.20;99.90;;;;;;4989334;28;20089;-64
2021/08/22 02:32:23;;;;;;;8.05;4.38;;;11.30;99.90;;;;;;4990025;28;20030;-64
2021/08/22 02:34:50;;;;;;;7.35;4.28;;;11.30;99.90;;;;;;4988978;28;20033;-64
2021/08/22 02:37:16;;;;;;;8.10;4.82;;;11.40;99.90;;;;;;4990903;28;20026;-65
2021/08/22 02:39:43;;;;;;;5.10;4.00;;;11.50;99.90;;;;;;4987391;28;20053;-64
2021/08/22 02:42:09;;;;;;;6.65;3.95;;;11.40;99.90;;;;;;4990887;28;20112;-65
2021/08/22 02:44:35;;;;;;;7.88;4.95;;;11.50;99.90;;;;;;4987027;28;20323;-65
2021/08/22 02:47:01;;;;;;;6.43;4.25;;;11.50;99.90;;;;;;4989958;28;20413;-64
2021/08/22 02:49:27;;;;;;;7.93;4.95;;;11.60;99.90;;;;;;4989626;28;20255;-65
2021/08/22 02:51:53;;;;;;;6.05;4.13;;;11.60;99.90;;;;;;4989381;28;20026;-64
2021/08/22 02:54:18;;;;;;;9.88;5.10;;;11.60;99.90;;;;;;4986562;28;20414;-65
2021/08/22 02:56:44;;;;;;;8.38;4.63;;;11.60;99.90;;;;;;4990162;28;20279;-64
2021/08/22 02:59:10;;;;;;;6.97;5.25;;;11.60;99.90;;;;;;4991645;28;20096;-64
2021/08/22 03:01:36;;;;;;;8.68;4.47;;;11.70;99.90;;;;;;4994571;28;20273;-65
2021/08/22 03:04:01;;;;;;;11.48;5.47;;;11.70;99.90;;;;;;4992690;28;20033;-64
2021/08/22 03:06:27;;;;;;;7.65;4.10;;;11.80;99.90;;;;;;4994011;28;20033;-65
2021/08/22 03:08:53;;;;;;;7.25;4.70;;;11.70;99.90;;;;;;4993816;28;20427;-64
2021/08/22 03:11:19;;;;;;;12.77;4.97;;;11.70;99.90;;;;;;4994327;28;20033;-64
2021/08/22 03:13:46;;;;;;;12.48;5.07;;;11.60;99.90;;;;;;4993400;28;20168;-64
2021/08/22 03:16:12;;;;;;;7.32;4.97;;;11.70;99.90;;;;;;4993690;28;20031;-64
2021/08/22 03:18:37;;;;;;;6.75;4.78;;;11.60;99.90;;;;;;4994003;28;20040;-64
2021/08/22 03:21:04;;;;;;;9.75;5.03;;;11.60;99.90;;;;;;4993883;28;20026;-64
2021/08/22 03:23:29;;;;;;;7.68;5.40;;;11.70;99.90;;;;;;4994431;28;20114;-64
2021/08/22 03:25:55;;;;;;;9.68;5.60;;;11.70;99.90;;;;;;4991653;28;20053;-64
2021/08/22 03:28:21;;;;;;;7.28;4.45;;;11.70;99.90;;;;;;4994434;28;20083;-64
2021/08/22 03:30:51;;;;;;;8.25;5.10;;;11.70;99.90;;;;;;4992163;28;20360;-64
2021/08/22 03:33:17;;;;;;;;;;;11.70;99.90;;;;;;4995456;28;20046;-64
2021/08/22 03:35:43;;;;;;;11.13;5.20;;;11.70;99.90;;;;;;4992645;28;19913;-64
2021/08/22 03:38:09;;;;;;;7.20;5.28;;;11.70;99.90;;;;;;4993301;28;20275;-64
2021/08/22 03:40:34;;;;;;;9.88;4.78;;;11.70;99.90;;;;;;4990593;28;20221;-65
2021/08/22 03:43:00;;;;;;;7.65;4.95;;;11.70;99.90;;;;;;4993691;28;20030;-65
2021/08/22 03:45:26;;;;;;;9.95;4.63;;;11.80;99.90;;;;;;4991500;28;20335;-65
2021/08/22 03:47:52;;;;;;;8.82;5.05;;;11.80;99.90;;;;;;4993661;28;20105;-64
2021/08/22 03:50:18;;;;;;;8.98;4.88;;;11.80;99.90;;;;;;4993738;28;20030;-64
2021/08/22 03:52:47;;;;;;;7.68;4.70;;;11.80;99.90;;;;;;5009007;28;20379;-64
2021/08/22 03:55:14;;;;;;;6.35;4.70;;;11.80;99.90;;;;;;4988616;28;20045;-65
2021/08/22 03:57:40;;;;;;;7.93;4.90;;;11.70;99.90;;;;;;4992509;28;20119;-64
2021/08/22 04:00:06;;;;;;;7.80;5.15;;;11.80;99.90;;;;;;4992373;28;20033;-65
2021/08/22 04:02:32;;;;;;;8.05;5.55;;;11.90;99.90;;;;;;4988902;28;20098;-65
2021/08/22 04:05:00;;;;;;;10.23;4.72;;;11.80;99.90;;;;;;4991610;28;20390;-65
2021/08/22 04:07:28;;;;;;;5.60;4.28;;;11.80;99.90;;;;;;4993181;28;20365;-64
2021/08/22 04:09:54;;;;;;;7.68;5.13;;;11.80;99.90;;;;;;4985878;28;20034;-65
2021/08/22 04:12:20;;;;;;;8.20;4.80;;;11.90;99.90;;;;;;4993045;28;20034;-65
2021/08/22 04:14:46;;;;;;;8.10;5.03;;;12.00;99.90;;;;;;4989625;28;20108;-64
2021/08/22 04:17:11;;;;;;;9.63;5.00;;;11.90;99.90;;;;;;4990031;28;20022;-65
2021/08/22 04:19:37;;;;;;;8.88;4.53;;;11.90;99.90;;;;;;4990307;28;20302;-65
2021/08/22 04:22:03;;;;;;;7.80;5.35;;;11.90;99.90;;;;;;4990920;28;20031;-64
2021/08/22 04:24:29;;;;;;;7.97;4.70;;;11.90;99.90;;;;;;4992251;28;20061;-64
2021/08/22 04:26:56;;;;;;;7.80;5.18;;;12.00;99.90;;;;;;4990317;28;20026;-64
2021/08/22 04:29:21;;;;;;;9.00;4.75;;;12.10;99.90;;;;;;4992936;28;20038;-65
2021/08/22 04:31:47;;;;;;;9.30;5.05;;;12.10;99.90;;;;;;4992237;28;20098;-65
2021/08/22 04:34:13;;;;;;;10.57;4.53;;;12.10;99.90;;;;;;4992243;28;20049;-65
2021/08/22 04:36:39;;;;;;;6.97;5.22;;;12.10;99.90;;;;;;4992136;28;20030;-65
2021/08/22 04:39:05;;;;;;;11.63;5.30;;;12.10;99.90;;;;;;4991867;28;20199;-64
2021/08/22 04:41:31;;;;;;;7.47;5.18;;;12.10;99.90;;;;;;4991381;28;20150;-64
2021/08/22 04:43:56;;;;;;;8.07;5.60;;;12.20;99.90;;;;;;4992812;28;20327;-64
2021/08/22 04:46:22;;;;;;;7.28;5.18;;;12.20;99.90;;;;;;5001187;28;20365;-65
2021/08/22 04:48:48;;;;;;;7.43;5.05;;;12.20;99.90;;;;;;4994663;28;20111;-65
2021/08/22 04:51:14;;;;;;;10.90;6.15;;;12.20;99.90;;;;;;4990890;28;20238;-64
2021/08/22 04:53:40;;;;;;;9.45;5.63;;;12.30;99.90;;;;;;4992230;28;20041;-65
2021/08/22 04:56:08;;;;;;;10.93;5.28;;;12.30;99.90;;;;;;4991969;28;20049;-64
2021/08/22 04:58:35;;;;;;;8.50;6.20;;;12.30;99.90;;;;;;4994036;28;20092;-64
2021/08/22 05:01:01;;;;;;;8.70;5.53;;;12.30;99.90;;;;;;4991295;28;20349;-65
2021/08/22 05:03:27;;;;;;;8.50;5.82;;;12.30;99.90;;;;;;4991982;28;20112;-64
2021/08/22 05:05:52;;;;;;;11.70;6.45;;;12.30;99.90;;;;;;4989825;28;20075;-64
2021/08/22 05:08:18;;;;;;;9.48;6.07;;;12.40;99.90;;;;;;4991145;28;20034;-63
2021/08/22 05:10:45;;;;;;;9.98;5.35;;;12.40;99.90;;;;;;4990322;28;20316;-64
2021/08/22 05:13:11;;;;;;;9.85;6.03;;;12.40;99.90;;;;;;4990319;28;20342;-64
2021/08/22 05:15:39;;;;;;;9.20;6.63;;;12.40;99.90;;;;;;4993107;28;20038;-64
2021/08/22 05:18:05;;;;;;;8.68;5.80;;;12.40;99.90;;;;;;4990289;28;20034;-63
2021/08/22 05:20:31;;;;;;;10.30;5.82;;;12.50;99.90;;;;;;4991700;28;20406;-64
2021/08/22 05:22:56;;;;;;;15.38;6.40;;;12.50;99.90;;;;;;4990871;28;20030;-64
2021/08/22 05:25:22;;;;;;;8.45;6.10;;;12.50;99.90;;;;;;4985872;28;20026;-64
2021/08/22 05:27:48;;;;;;;8.68;6.05;;;12.60;99.90;;;;;;4989028;28;20062;-64
2021/08/22 05:30:14;;;;;;;9.45;6.50;;;12.50;99.90;;;;;;4988171;28;20026;-64
2021/08/22 05:32:39;;;;;;;10.48;6.60;;;12.60;99.90;;;;;;4990202;28;20073;-64
2021/08/22 05:35:06;;;;;;;9.05;5.78;;;12.70;99.90;;;;;;5006839;28;20046;-64
2021/08/22 05:37:31;;;;;;;11.48;5.93;;;12.70;99.90;;;;;;4989577;28;20030;-64
2021/08/22 05:39:57;;;;;;;8.30;6.35;;;12.70;99.90;;;;;;4978729;28;20547;-65
2021/08/22 05:42:23;;;;;;;10.43;6.72;;;12.70;99.90;;;;;;4976310;28;20037;-64
2021/08/22 05:44:49;;;;;;;11.35;6.00;;;12.70;99.90;;;;;;4985360;28;20287;-64
2021/08/22 05:47:21;;;;;;;10.20;6.65;;;12.80;99.90;;;;;;4991576;28;20343;-64
2021/08/22 05:49:48;;;;;;;10.30;6.35;;;12.80;99.90;;;;;;4994102;28;20397;-64
2021/08/22 05:52:14;;;;;;;8.73;6.15;;;12.80;99.90;;;;;;4991037;28;20072;-64
2021/08/22 05:54:40;;;;;;;8.75;6.00;;;12.90;99.90;;;;;;4993727;28;20054;-64
2021/08/22 05:57:06;;;;;;;10.57;5.43;;;12.90;99.90;;;;;;4993700;28;20026;-65
2021/08/22 05:59:33;;;;;;;11.20;6.50;;;12.90;99.90;;;;;;4993480;28;20328;-64
2021/08/22 06:02:00;;;;;;;15.48;7.20;;;12.90;99.90;;;;;;4996257;28;20056;-65
2021/08/22 06:04:26;;;;;;;10.15;6.75;;;13.00;99.90;;;;;;4994339;28;20280;-64
2021/08/22 06:06:52;;;;;;;8.10;5.90;;;13.00;99.90;;;;;;4996712;28;20145;-64
2021/08/22 06:09:18;;;;;;;11.32;6.68;;;13.00;99.90;;;;;;4993110;28;20029;-64
2021/08/22 06:11:44;;;;;;;13.65;6.43;;;13.10;99.90;;;;;;4991526;28;20371;-64
2021/08/22 06:14:10;;;;;;;11.65;7.10;;;13.10;99.90;;;;;;4984411;28;20042;-64
2021/08/22 06:16:36;;;;;;;7.80;5.70;;;13.20;99.90;;;;;;4990176;28;20106;-64
2021/08/22 06:19:02;;;;;;;15.25;7.00;;;13.20;99.90;;;;;;4991529;28;20235;-64
2021/08/22 06:21:28;;;;;;;14.90;7.47;;;13.30;99.90;;;;;;4990087;28;20218;-64
2021/08/22 06:23:57;;;;;;;13.18;7.25;;;13.30;99.90;;;;;;4988740;28;20236;-64
2021/08/22 06:26:25;;;;;;;12.15;6.50;;;13.30;99.90;;;;;;4988499;28;20533;-64
2021/08/22 06:28:51;;;;;;;10.00;6.43;;;13.30;99.90;;;;;;4990481;28;20051;-65
2021/08/22 06:31:17;;;;;;;11.80;6.80;;;13.40;99.90;;;;;;4989473;28;20026;-64
2021/08/22 06:33:43;;;;;;;11.75;7.00;;;13.50;99.90;;;;;;4991439;28;20081;-65
2021/08/22 06:36:09;;;;;;;10.85;6.43;;;13.60;99.90;;;;;;4988904;28;20029;-64
2021/08/22 06:38:35;;;;;;;10.23;6.47;;;13.60;99.90;;;;;;4989348;28;20093;-64
2021/08/22 06:41:00;;;;;;;9.25;6.63;;;13.70;99.90;;;;;;4989950;28;20035;-64
2021/08/22 06:43:27;;;;;;;10.32;6.30;;;13.70;99.90;;;;;;4984448;28;20336;-64
2021/08/22 06:45:53;;;;;;;10.57;6.13;;;13.80;99.90;;;;;;4985348;28;20084;-65
2021/08/22 06:48:18;;;;;;;8.23;6.00;;;13.90;99.90;;;;;;4983711;28;20360;-64
2021/08/22 06:50:45;;;;;;;7.55;5.97;;;14.00;99.90;;;;;;4982429;28;20018;-64
2021/08/22 06:53:11;;;;;;;11.90;7.03;;;14.10;99.90;;;;;;4984121;28;20042;-65
2021/08/22 06:55:36;;;;;;;9.27;6.47;;;14.20;99.90;;;;;;4983029;28;20136;-64
2021/08/22 06:58:02;;;;;;;10.07;6.68;;;14.30;99.90;;;;;;4990491;28;20340;-64
2021/08/22 07:00:28;;;;;;;9.98;6.53;;;14.30;99.90;;;;;;4988139;28;20049;-65
2021/08/22 07:02:54;;;;;;;11.07;6.45;;;14.50;99.90;;;;;;4988042;28;20026;-64
2021/08/22 07:05:20;;;;;;;11.20;6.85;;;14.50;99.90;;;;;;4990982;28;20085;-64
2021/08/22 07:07:46;;;;;;;9.10;6.53;;;14.60;99.90;;;;;;4965330;28;20034;-65
2021/08/22 07:10:11;;;;;;;9.50;6.85;;;14.70;99.90;;;;;;4987879;28;20512;-64
2021/08/22 07:12:37;;;;;;;13.32;7.50;;;14.70;99.90;;;;;;4986191;28;20052;-64
2021/08/22 07:15:04;;;;;;;12.88;7.47;;;14.70;99.90;;;;;;4988682;28;20089;-64
2021/08/22 07:17:30;;;;;;;10.63;7.15;;;14.70;99.90;;;;;;4989600;28;20064;-64
2021/08/22 07:19:55;;;;;;;12.63;6.80;;;14.80;99.90;;;;;;4988582;28;20026;-64
2021/08/22 07:22:21;;;;;;;11.57;7.00;;;14.90;99.90;;;;;;4987275;28;20399;-65
2021/08/22 07:24:47;;;;;;;13.70;6.47;;;15.00;99.90;;;;;;4988323;28;20312;-65
2021/08/22 07:27:13;;;;;;;10.73;6.93;;;15.10;99.90;;;;;;4985831;28;20281;-65
2021/08/22 07:29:39;;;;;;;8.85;6.07;;;15.20;99.90;;;;;;4982361;28;20049;-65
2021/08/22 07:32:05;;;;;;;8.57;5.53;;;15.30;99.90;;;;;;4985666;28;20026;-65
2021/08/22 07:34:31;;;;;;;8.27;6.25;;;15.30;99.90;;;;;;4985505;28;20038;-64
2021/08/22 07:36:57;;;;;;;8.77;6.32;;;15.40;99.90;;;;;;4984666;28;20108;-64
2021/08/22 07:39:22;;;;;;;11.23;6.07;;;15.40;99.90;;;;;;4985017;28;20300;-65
2021/08/22 07:41:48;;;;;;;9.95;6.28;;;15.50;99.90;;;;;;4990303;28;20060;-65
2021/08/22 07:44:17;;;;;;;8.70;5.70;;;15.50;99.90;;;;;;4987769;28;20026;-64
2021/08/22 07:46:43;;;;;;;12.10;6.37;;;15.60;99.90;;;;;;4994084;28;20034;-64
2021/08/22 07:49:09;;;;;;;10.40;5.60;;;15.70;99.90;;;;;;4990244;28;20029;-64
2021/08/22 07:51:34;;;;;;;7.53;4.97;;;15.70;99.90;;;;;;4990106;28;20069;-64
2021/08/22 07:54:00;;;;;;;9.02;5.15;;;15.70;99.90;;;;;;4992242;28;20498;-64
2021/08/22 07:56:26;;;;;;;5.95;4.68;;;15.70;99.90;;;;;;4990230;28;20030;-65
2021/08/22 07:58:52;;;;;;;9.00;5.00;;;15.70;99.90;;;;;;4979531;28;20030;-65
2021/08/22 08:01:17;;;;;;;7.32;4.60;;;15.80;99.90;;;;;;4980491;28;20361;-65
2021/08/22 08:03:43;;;;;;;5.32;4.07;;;15.90;99.90;;;;;;4982348;28;20366;-65
2021/08/22 08:06:09;;;;;;;7.82;4.45;;;16.00;99.90;;;;;;4992585;28;20041;-64
2021/08/22 08:08:36;;;;;;;5.50;4.07;;;16.10;99.90;;;;;;4990443;28;20060;-64
2021/08/22 08:11:03;;;;;;;7.97;4.00;;;16.20;99.90;;;;;;4991261;28;20034;-65
2021/08/22 08:13:29;;;;;;;7.47;4.68;;;16.30;99.90;;;;;;4989980;28;20061;-65
2021/08/22 08:15:56;;;;;;;6.60;4.75;;;16.40;99.90;;;;;;4991448;28;20121;-65
2021/08/22 08:18:22;;;;;;;7.82;4.43;;;16.50;99.90;;;;;;4990830;28;20042;-65
2021/08/22 08:20:47;;;;;;;6.05;3.85;;;16.70;99.90;;;;;;4991642;28;20101;-66
2021/08/22 08:23:13;;;;;;;5.82;3.67;;;16.80;99.90;;;;;;4989776;28;20376;-65
2021/08/22 08:25:39;;;;;;;7.93;3.95;;;16.90;99.90;;;;;;4990730;28;20102;-65
2021/08/22 08:28:05;;;;;;;5.65;3.88;;;17.00;99.90;;;;;;4992585;28;20035;-65
2021/08/22 08:30:31;;;;;;;4.97;3.20;;;17.00;99.90;;;;;;4989782;28;20022;-65
2021/08/22 08:32:57;;;;;;;7.47;3.38;;;17.30;99.90;;;;;;4991108;28;20042;-65
2021/08/22 08:35:23;;;;;;;6.28;3.15;;;17.50;99.90;;;;;;4989954;28;20110;-65
2021/08/22 08:37:49;;;;;;;5.35;3.15;;;17.80;99.90;;;;;;4992108;28;20081;-65
2021/08/22 08:40:19;;;;;;;4.97;3.35;;;18.10;99.90;;;;;;4990832;28;20097;-65
2021/08/22 08:42:51;;;;;;;7.22;2.67;;;18.10;99.90;;;;;;4990594;28;20214;-65
2021/08/22 08:45:23;;;;;;;5.28;2.70;;;18.30;99.90;;;;;;4990879;28;20108;-64
2021/08/22 08:47:51;;;;;;;4.85;2.70;;;18.40;99.90;;;;;;4990750;28;20030;-65
2021/08/22 08:50:30;;;;;;;6.32;2.50;;;18.60;99.90;;;;;;4991953;28;20026;-65
2021/08/22 08:53:02;;;;;;;5.05;2.33;;;18.80;99.90;;;;;;4991200;28;20074;-65
2021/08/22 08:55:36;;;;;;;6.30;2.47;;;19.60;99.90;;;;;;4992118;28;20420;-65
2021/08/22 08:58:02;;;;;;;2.30;1.63;;;19.80;99.90;;;;;;4989229;28;20042;-65
2021/08/22 09:00:34;;;;;;;3.85;1.73;;;19.70;99.90;;;;;;4988812;28;20026;-65
2021/08/22 09:03:01;;;;;;;4.40;1.85;;;20.10;99.90;;;;;;4989434;28;20058;-65
2021/08/22 09:05:53;;;;;;;4.10;1.95;;;20.30;99.90;;;;;;4992025;28;20705;-65
2021/08/22 09:08:27;;;;;;;4.88;2.03;;;20.50;99.90;;;;;;4991013;28;20030;-64
2021/08/22 09:11:21;;;;;;;3.97;1.83;;;21.00;99.90;;;;;;4991166;28;20042;-65
2021/08/22 09:14:24;;;;;;;4.78;1.60;;;21.50;99.90;;;;;;4991496;28;20050;-65
2021/08/22 09:17:28;;;;;;;3.72;1.88;;;21.90;99.90;;;;;;4989043;28;20046;-66
2021/08/22 09:20:15;;;;;;;3.35;1.45;;;22.20;99.90;;;;;;4991023;28;20036;-66
2021/08/22 09:23:18;;;;;;;5.35;1.55;;;22.20;99.90;;;;;;4992072;28;20033;-65
2021/08/22 09:26:21;;;;;;;4.70;1.65;;;22.30;99.90;;;;;;4991556;28;20431;-65
2021/08/22 09:29:24;;;;;;;5.78;2.08;;;22.20;99.90;;;;;;4988819;28;20022;-65
2021/08/22 09:32:27;;;;;;;2.08;1.33;;;22.30;99.90;;;;;;4990297;28;20276;-65
2021/08/22 09:35:15;;;;;;;4.43;1.65;;;22.30;99.90;;;;;;4990945;28;20053;-65
2021/08/22 09:38:11;;;;;;;2.47;1.20;;;22.50;99.90;;;;;;4996873;28;20027;-65
2021/08/22 09:41:14;;;;;;;2.25;1.55;;;22.50;99.90;;;;;;4989163;28;20312;-65
2021/08/22 09:44:17;;;;;;;3.05;1.40;;;22.30;99.90;;;;;;4991821;28;20045;-65
2021/08/22 09:46:46;;;;;;;1.90;1.33;;;22.50;99.90;;;;;;4999562;28;20034;-65
2021/08/22 09:49:49;;;;;;;2.70;1.05;;;22.80;99.90;;;;;;4996910;28;20201;-66
2021/08/22 09:52:36;;;;;;;4.90;1.48;;;23.30;99.90;;;;;;4986204;28;20390;-65
2021/08/22 09:55:20;;;;;;;4.13;1.25;;;23.70;99.90;;;;;;4997464;28;20528;-66
2021/08/22 09:58:12;;;;;;;3.08;1.40;;;23.90;99.90;;;;;;4990178;28;20039;-65
2021/08/22 10:01:15;;;;;;;2.65;1.42;;;23.90;99.90;;;;;;4965462;28;20042;-66
2021/08/22 10:04:22;;;;;;;1.80;1.15;;;23.90;99.90;;;;;;4989268;28;20061;-65
2021/08/22 10:07:09;;;;;;;1.90;1.33;;;23.70;99.90;;;;;;4989720;28;20022;-66
2021/08/22 10:09:55;;;;;;;3.05;1.15;;;23.90;99.90;;;;;;4986872;28;20038;-65
2021/08/22 10:12:20;;;;;;;4.22;1.10;;;24.00;99.90;;;;;;4987927;28;20027;-66
2021/08/22 10:14:46;;;;;;;3.17;1.35;;;24.60;99.90;;;;;;4988773;28;20350;-66
2021/08/22 10:17:22;;;;;;;2.05;1.20;;;24.70;99.90;;;;;;4985472;28;20111;-66
2021/08/22 10:19:49;;;;;;;2.47;1.00;;;24.80;99.90;;;;;;4986324;28;20034;-65
2021/08/22 10:22:17;;;;;;;4.18;1.25;;;24.70;99.90;;;;;;4986575;28;20564;-65
2021/08/22 10:24:54;;;;;;;2.03;1.10;;;24.60;99.90;;;;;;4988286;28;20617;-66
2021/08/22 10:27:33;;;;;;;3.60;1.05;;;24.60;99.90;;;;;;4982209;28;20276;-66
2021/08/22 10:30:02;;;;;;;3.90;1.60;;;24.80;99.90;;;;;;4990539;28;20349;-65
2021/08/22 10:32:28;;;;;;;2.42;1.10;;;25.00;99.90;;;;;;4988250;28;20345;-66
2021/08/22 10:35:13;;;;;;;3.05;1.33;;;24.90;99.90;;;;;;4988097;28;20026;-66
2021/08/22 10:37:45;;;;;;;2.90;1.15;;;25.10;99.90;;;;;;4989649;28;20038;-65
2021/08/22 10:40:23;;;;;;;2.38;1.00;;;25.50;99.90;;;;;;4989436;28;20117;-65
2021/08/22 10:43:09;;;;;;;5.47;1.02;;;25.30;98.90;;;;;;4989851;28;20034;-65
2021/08/22 10:45:48;;;;;;;3.00;1.40;;;25.10;99.00;;;;;;4977601;28;20069;-65
2021/08/22 10:48:22;;;;;;;2.17;1.20;;;24.90;99.90;;;;;;4990147;28;20402;-66
2021/08/22 10:50:59;;;;;;;2.90;1.42;;;25.00;99.30;;;;;;4991109;28;20329;-66
2021/08/22 10:53:44;;;;;;;2.58;1.35;;;25.20;99.90;;;;;;4991392;28;20030;-65
2021/08/22 10:56:22;;;;;;;1.52;1.20;;;25.60;99.40;;;;;;4988823;28;20029;-65
2021/08/22 10:59:00;;;;;;;2.30;1.25;;;25.50;99.40;;;;;;4990625;28;20046;-66
2021/08/22 11:01:36;;;;;;;3.58;1.17;;;25.20;99.20;;;;;;4990153;28;20061;-65
2021/08/22 11:04:17;;;;;;;2.85;1.10;;;25.20;99.90;;;;;;4988877;28;20244;-65
2021/08/22 11:07:06;;;;;;;2.88;1.10;;;25.30;99.00;;;;;;5002072;28;20380;-67
2021/08/22 11:09:43;;;;;;;3.33;1.15;;;25.50;99.20;;;;;;4985640;28;20319;-76
2021/08/22 11:12:29;;;;;;;2.20;1.20;;;25.20;98.80;;;;;;4989641;28;20030;-75
2021/08/22 11:14:57;;;;;;;5.75;1.60;;;25.10;99.50;;;;;;4990210;28;20082;-74
2021/08/22 11:17:24;;;;;;;2.65;1.40;;;25.00;98.80;;;;;;4986709;28;20062;-75
2021/08/22 11:19:50;;;;;;;5.05;1.50;;;25.00;99.30;;;;;;4991016;28;20034;-74
2021/08/22 11:22:29;;;;;;;3.55;1.30;;;25.30;98.80;;;;;;4996200;28;20096;-75
2021/08/22 11:24:57;;;;;;;1.27;1.00;;;25.50;97.80;;;;;;4993770;28;20034;-75
2021/08/22 11:27:25;;;;;;;3.10;1.20;;;25.60;98.90;;;;;;4994380;28;20082;-75
2021/08/22 11:30:05;;;;;;;2.78;0.93;;;26.00;98.60;;;;;;4993387;28;20336;-75
2021/08/22 11:32:32;;;;;;;1.17;1.02;;;26.20;98.30;;;;;;4994811;28;20026;-74
2021/08/22 11:35:12;;;;;;;3.15;1.05;;;26.10;98.10;;;;;;4992213;28;20168;-70
2021/08/22 11:37:38;;;;;;;5.28;1.48;;;26.00;97.90;;;;;;4990563;28;20371;-69
2021/08/22 11:40:15;;;;;;;5.13;1.17;;;25.90;98.70;;;;;;4992844;28;20030;-69
2021/08/22 11:43:05;;;;;;;3.78;1.35;;;25.70;98.50;;;;;;4991880;28;20029;-69
2021/08/22 11:45:34;;;;;;;2.35;1.10;;;25.90;98.60;;;;;;4993403;28;20125;-69
2021/08/22 11:48:02;;;;;;;2.58;0.82;;;26.20;98.50;;;;;;4995154;28;20037;-69
2021/08/22 11:50:30;;;;;;;1.20;1.00;;;25.80;97.10;;;;;;4993524;28;20101;-69
2021/08/22 11:53:01;;;;;;;1.75;0.93;;;25.70;98.30;;;;;;4993576;28;20042;-69
2021/08/22 11:55:32;;;;;;;2.55;1.10;;;25.80;98.60;;;;;;4992468;28;20046;-69
2021/08/22 11:58:17;;;;;;;3.53;1.27;;;26.00;98.70;;;;;;4992647;28;20034;-69
2021/08/22 12:00:51;;;;;;;1.50;0.95;;;26.30;97.10;;;;;;4993705;28;20030;-69
2021/08/22 12:03:21;;;;;;;1.80;1.20;;;26.60;97.60;;;;;;4991474;28;20328;-69
2021/08/22 12:06:01;;;;;;;2.13;1.00;;;26.70;97.70;;;;;;4991125;28;20037;-69
2021/08/22 12:08:28;;;;;;;1.40;0.80;;;26.50;97.70;;;;;;4993789;28;20347;-69
2021/08/22 12:11:10;;;;;;;2.03;0.93;;;26.30;98.00;;;;;;4992827;28;20030;-69
2021/08/22 12:13:37;;;;;;;9.02;1.45;;;26.40;98.70;;;;;;4993461;28;20450;-69
2021/08/22 12:16:31;;;;;;;1.92;1.30;;;26.10;97.80;;;;;;4994573;28;20038;-69
2021/08/22 12:19:19;;;;;;;2.25;1.00;;;25.60;98.10;;;;;;4993068;28;20054;-69
2021/08/22 12:21:46;;;;;;;2.97;1.83;;;25.10;98.50;;;;;;4993508;28;20704;-69
2021/08/22 12:24:30;;;;;;;3.83;1.40;;;25.00;97.70;;;;;;4975978;28;20049;-69
2021/08/22 12:26:57;;;;;;;2.97;1.23;;;24.60;98.90;;;;;;4994180;28;20026;-69
2021/08/22 12:29:35;;;;;;;3.30;1.58;;;24.40;99.70;;;;;;4993247;28;20023;-69
2021/08/22 12:32:12;;;;;;;3.05;1.42;;;24.50;98.70;;;;;;4990492;28;20026;-69
2021/08/22 12:34:38;;;;;;;3.28;1.20;;;24.10;99.50;;;;;;4992956;28;20046;-69
2021/08/22 12:37:09;;;;;;;2.13;1.20;;;24.50;99.10;;;;;;4995153;28;20033;-69
2021/08/22 12:39:35;;;;;;;6.20;1.30;;;24.80;98.90;;;;;;4992490;28;20030;-69
2021/08/22 12:42:01;;;;;;;3.13;1.30;;;25.20;97.70;;;;;;4993927;28;20037;-69
2021/08/22 12:44:28;;;;;;;2.47;1.30;;;25.20;98.10;;;;;;4993548;28;20053;-69
2021/08/22 12:47:03;;;;;;;2.20;1.10;;;25.10;97.60;;;;;;4992933;28;20022;-70
2021/08/22 12:49:30;;;;;;;2.58;1.23;;;25.10;98.20;;;;;;4993297;28;20213;-69
2021/08/22 12:52:02;;;;;;;2.53;1.25;;;25.20;98.10;;;;;;4991189;28;20048;-69
2021/08/22 12:54:29;;;;;;;3.60;1.02;;;25.10;98.20;;;;;;4993617;28;20304;-69
2021/08/22 12:56:56;;;;;;;2.20;1.08;;;24.70;98.30;;;;;;4992928;28;20030;-69
2021/08/22 12:59:22;;;;;;;2.53;1.17;;;24.40;97.70;;;;;;4993905;28;20080;-69
2021/08/22 13:01:48;;;;;;;1.90;1.27;;;24.00;98.40;;;;;;4993465;28;20026;-69